createdAt,value
2023-02-02T00:00:09.132Z,0.00
2023-02-02T00:01:09.180Z,0.00
2023-02-02T00:02:09.069Z,0.00
2023-02-02T00:03:09.103Z,0.00
2023-02-02T00:04:09.070Z,0.00
2023-02-02T00:05:09.027Z,0.00
2023-02-02T00:06:09.046Z,0.00
2023-02-02T00:07:09.006Z,0.00
2023-02-02T00:08:08.988Z,0.00
2023-02-02T00:09:08.996Z,0.00
2023-02-02T00:10:08.991Z,0.00
2023-02-02T00:11:09.047Z,0.00
2023-02-02T00:12:08.943Z,0.00
2023-02-02T00:13:08.956Z,0.00
2023-02-02T00:14:08.921Z,0.00
2023-02-02T00:15:08.956Z,0.00
2023-02-02T00:16:08.931Z,0.00
2023-02-02T00:17:08.945Z,0.00
2023-02-02T00:18:08.915Z,0.00
2023-02-02T00:19:08.903Z,0.00
2023-02-02T00:20:08.902Z,0.00
2023-02-02T00:21:08.857Z,0.00
2023-02-02T00:22:08.846Z,0.00
2023-02-02T00:23:08.837Z,0.00
2023-02-02T00:24:08.823Z,0.00
2023-02-02T00:25:08.826Z,0.00
2023-02-02T00:26:08.845Z,0.00
2023-02-02T00:27:08.786Z,0.00
2023-02-02T00:28:08.791Z,0.00
2023-02-02T00:29:08.799Z,0.00
2023-02-02T00:30:08.756Z,0.00
2023-02-02T00:31:08.779Z,0.00
2023-02-02T00:32:08.746Z,0.00
2023-02-02T00:33:08.743Z,0.00
2023-02-02T00:34:08.708Z,0.00
2023-02-02T00:35:08.716Z,0.00
2023-02-02T00:36:08.761Z,0.00
2023-02-02T00:37:08.679Z,0.00
2023-02-02T00:38:08.696Z,0.00
2023-02-02T00:39:08.672Z,0.00
2023-02-02T00:40:08.648Z,0.00
2023-02-02T00:41:08.647Z,0.00
2023-02-02T00:42:08.700Z,0.00
2023-02-02T00:43:08.648Z,0.00
2023-02-02T00:44:08.613Z,0.00
2023-02-02T00:45:08.592Z,0.00
2023-02-02T00:46:08.643Z,0.00
2023-02-02T00:47:08.584Z,0.00
2023-02-02T00:48:08.580Z,0.00
2023-02-02T00:49:08.541Z,0.00
2023-02-02T00:50:08.545Z,0.00
2023-02-02T00:51:08.554Z,0.00
2023-02-02T00:52:08.508Z,0.00
2023-02-02T00:53:08.495Z,0.00
2023-02-02T00:54:08.498Z,0.00
2023-02-02T00:55:08.533Z,0.00
2023-02-02T00:56:08.486Z,0.00
2023-02-02T00:57:08.461Z,0.00
2023-02-02T00:58:08.443Z,0.00
2023-02-02T00:59:08.423Z,0.00
2023-02-02T01:00:08.434Z,0.00
2023-02-02T01:01:08.515Z,0.00
2023-02-02T01:02:08.500Z,0.00
2023-02-02T01:03:08.412Z,0.00
2023-02-02T01:04:08.397Z,0.00
2023-02-02T01:05:08.375Z,0.00
2023-02-02T01:06:08.385Z,0.00
2023-02-02T01:07:08.388Z,0.00
2023-02-02T01:08:08.392Z,0.00
2023-02-02T01:09:08.324Z,0.00
2023-02-02T01:10:08.325Z,0.00
2023-02-02T01:11:08.361Z,0.00
2023-02-02T01:12:08.337Z,0.00
2023-02-02T01:13:08.276Z,0.00
2023-02-02T01:14:08.305Z,0.00
2023-02-02T01:15:08.261Z,0.00
2023-02-02T01:16:08.284Z,0.00
2023-02-02T01:17:08.244Z,0.00
2023-02-02T01:18:08.241Z,0.00
2023-02-02T01:19:08.210Z,0.00
2023-02-02T01:20:08.241Z,0.00
2023-02-02T01:21:08.183Z,0.00
2023-02-02T01:22:09.147Z,0.00
2023-02-02T01:23:08.157Z,0.00
2023-02-02T01:24:08.183Z,0.00
2023-02-02T01:25:08.156Z,0.00
2023-02-02T01:26:08.168Z,0.00
2023-02-02T01:27:08.142Z,0.00
2023-02-02T01:28:08.110Z,0.00
2023-02-02T01:29:08.108Z,0.00
2023-02-02T01:30:08.098Z,0.00
2023-02-02T01:31:08.097Z,0.00
2023-02-02T01:32:08.122Z,0.00
2023-02-02T01:33:08.062Z,0.00
2023-02-02T01:34:08.057Z,0.00
2023-02-02T01:35:08.020Z,0.00
2023-02-02T01:36:08.023Z,0.00
2023-02-02T01:37:07.992Z,0.00
2023-02-02T01:38:08.039Z,0.00
2023-02-02T01:39:07.999Z,0.00
2023-02-02T01:40:07.971Z,0.00
2023-02-02T01:41:08.006Z,0.00
2023-02-02T01:42:07.963Z,0.00
2023-02-02T01:43:07.931Z,0.00
2023-02-02T01:44:07.940Z,0.00
2023-02-02T01:45:07.928Z,0.00
2023-02-02T01:46:07.928Z,0.00
2023-02-02T01:47:07.927Z,0.00
2023-02-02T01:48:07.885Z,0.00
2023-02-02T01:49:07.875Z,0.00
2023-02-02T01:50:07.929Z,0.00
2023-02-02T01:51:07.863Z,0.00
2023-02-02T01:52:07.852Z,0.00
2023-02-02T01:53:07.837Z,0.00
2023-02-02T01:54:07.823Z,0.00
2023-02-02T01:55:07.798Z,0.00
2023-02-02T01:56:07.824Z,0.00
2023-02-02T01:57:07.788Z,0.00
2023-02-02T01:58:07.787Z,0.00
2023-02-02T01:59:07.785Z,0.00
2023-02-02T02:00:07.785Z,0.00
2023-02-02T02:01:07.775Z,0.00
2023-02-02T02:02:07.782Z,0.00
2023-02-02T02:03:07.729Z,0.00
2023-02-02T02:04:07.713Z,0.00
2023-02-02T02:05:07.752Z,0.00
2023-02-02T02:06:07.731Z,0.00
2023-02-02T02:07:07.721Z,0.00
2023-02-02T02:08:07.696Z,0.00
2023-02-02T02:09:07.659Z,0.00
2023-02-02T02:10:07.676Z,0.00
2023-02-02T02:11:07.635Z,0.00
2023-02-02T02:12:07.648Z,0.00
2023-02-02T02:13:07.654Z,0.00
2023-02-02T02:14:07.636Z,0.00
2023-02-02T02:15:07.602Z,0.00
2023-02-02T02:16:07.591Z,0.00
2023-02-02T02:17:07.596Z,0.00
2023-02-02T02:18:07.569Z,0.00
2023-02-02T02:19:07.550Z,0.00
2023-02-02T02:20:07.549Z,0.00
2023-02-02T02:21:07.546Z,0.00
2023-02-02T02:22:07.528Z,0.00
2023-02-02T02:23:07.510Z,0.00
2023-02-02T02:24:07.496Z,0.00
2023-02-02T02:25:07.492Z,0.00
2023-02-02T02:26:07.500Z,0.00
2023-02-02T02:27:07.473Z,0.00
2023-02-02T02:28:07.458Z,0.00
2023-02-02T02:29:07.427Z,0.00
2023-02-02T02:30:07.443Z,0.00
2023-02-02T02:31:07.504Z,0.00
2023-02-02T02:32:07.418Z,0.00
2023-02-02T02:33:07.411Z,0.00
2023-02-02T02:34:07.409Z,0.00
2023-02-02T02:35:07.417Z,0.00
2023-02-02T02:36:07.388Z,0.00
2023-02-02T02:37:07.691Z,0.00
2023-02-02T02:38:07.612Z,0.00
2023-02-02T02:39:07.581Z,0.00
2023-02-02T02:40:07.379Z,0.00
2023-02-02T02:41:07.311Z,0.00
2023-02-02T02:42:07.308Z,0.00
2023-02-02T02:43:07.388Z,0.00
2023-02-02T02:44:07.322Z,0.00
2023-02-02T02:45:07.303Z,0.00
2023-02-02T02:46:07.278Z,0.00
2023-02-02T02:47:07.276Z,0.00
2023-02-02T02:48:07.255Z,0.00
2023-02-02T02:49:07.222Z,0.00
2023-02-02T02:50:07.244Z,0.00
2023-02-02T02:51:07.204Z,0.00
2023-02-02T02:52:07.242Z,0.00
2023-02-02T02:53:07.195Z,0.00
2023-02-02T02:54:07.175Z,0.00
2023-02-02T02:55:07.160Z,0.00
2023-02-02T02:56:07.190Z,0.00
2023-02-02T02:57:07.136Z,0.00
2023-02-02T02:58:07.125Z,0.00
2023-02-02T02:59:07.118Z,0.00
2023-02-02T03:00:07.110Z,0.00
2023-02-02T03:01:07.146Z,0.00
2023-02-02T03:02:07.141Z,0.00
2023-02-02T03:03:07.327Z,0.00
2023-02-02T03:04:07.093Z,0.00
2023-02-02T03:05:07.045Z,0.00
2023-02-02T03:06:07.124Z,0.00
2023-02-02T03:07:07.040Z,0.00
2023-02-02T03:08:07.023Z,0.00
2023-02-02T03:09:07.344Z,0.00
2023-02-02T03:10:07.003Z,0.00
2023-02-02T03:11:06.988Z,0.00
2023-02-02T03:12:06.990Z,0.00
2023-02-02T03:13:06.979Z,0.00
2023-02-02T03:14:06.960Z,0.00
2023-02-02T03:15:06.967Z,0.00
2023-02-02T03:16:07.910Z,0.00
2023-02-02T03:17:06.962Z,0.00
2023-02-02T03:18:06.911Z,0.00
2023-02-02T03:19:06.892Z,0.00
2023-02-02T03:20:06.870Z,0.00
2023-02-02T03:21:06.912Z,0.00
2023-02-02T03:22:06.903Z,0.00
2023-02-02T03:23:06.880Z,0.00
2023-02-02T03:24:06.863Z,0.00
2023-02-02T03:25:06.852Z,0.00
2023-02-02T03:26:06.820Z,0.00
2023-02-02T03:27:06.824Z,0.00
2023-02-02T03:28:06.808Z,0.00
2023-02-02T03:29:06.781Z,0.00
2023-02-02T03:30:07.060Z,0.00
2023-02-02T03:31:06.933Z,0.00
2023-02-02T03:32:06.790Z,0.00
2023-02-02T03:33:06.801Z,0.00
2023-02-02T03:34:07.533Z,0.00
2023-02-02T03:35:06.787Z,0.00
2023-02-02T03:36:06.753Z,0.00
2023-02-02T03:37:06.720Z,0.00
2023-02-02T03:38:06.701Z,0.00
2023-02-02T03:39:06.687Z,0.00
2023-02-02T03:40:06.705Z,0.00
2023-02-02T03:41:06.654Z,0.00
2023-02-02T03:42:06.664Z,0.00
2023-02-02T03:43:06.629Z,0.00
2023-02-02T03:44:06.720Z,0.00
2023-02-02T03:45:06.648Z,0.00
2023-02-02T03:46:06.657Z,0.00
2023-02-02T03:47:06.691Z,0.00
2023-02-02T03:48:07.080Z,0.00
2023-02-02T03:49:06.555Z,0.00
2023-02-02T03:50:06.829Z,0.00
2023-02-02T03:51:06.585Z,0.00
2023-02-02T03:52:06.567Z,0.00
2023-02-02T03:53:06.528Z,0.00
2023-02-02T03:54:06.546Z,0.00
2023-02-02T03:55:06.509Z,0.00
2023-02-02T03:56:06.476Z,0.00
2023-02-02T03:57:06.486Z,0.00
2023-02-02T03:58:06.524Z,0.00
2023-02-02T03:59:06.459Z,0.00
2023-02-02T04:00:06.470Z,0.00
2023-02-02T04:01:06.451Z,0.00
2023-02-02T04:02:06.414Z,0.00
2023-02-02T04:03:06.443Z,0.00
2023-02-02T04:04:06.431Z,0.00
2023-02-02T04:05:06.410Z,0.00
2023-02-02T04:06:06.406Z,0.00
2023-02-02T04:07:06.371Z,0.00
2023-02-02T04:08:06.552Z,0.00
2023-02-02T04:09:06.420Z,0.00
2023-02-02T04:10:06.468Z,0.00
2023-02-02T04:11:06.331Z,0.00
2023-02-02T04:12:06.317Z,0.00
2023-02-02T04:13:06.774Z,0.00
2023-02-02T04:14:06.409Z,0.00
2023-02-02T04:15:06.301Z,0.00
2023-02-02T04:16:06.328Z,0.00
2023-02-02T04:17:06.255Z,0.00
2023-02-02T04:18:06.243Z,0.00
2023-02-02T04:19:07.055Z,0.00
2023-02-02T04:20:06.257Z,0.00
2023-02-02T04:21:06.253Z,0.00
2023-02-02T04:22:06.204Z,0.00
2023-02-02T04:23:06.199Z,0.00
2023-02-02T04:24:06.188Z,0.00
2023-02-02T04:25:06.180Z,0.00
2023-02-02T04:26:06.164Z,0.00
2023-02-02T04:27:06.159Z,0.00
2023-02-02T04:28:06.138Z,0.00
2023-02-02T04:29:06.177Z,0.00
2023-02-02T04:30:06.150Z,0.00
2023-02-02T04:31:06.184Z,0.00
2023-02-02T04:32:06.119Z,0.00
2023-02-02T04:33:07.516Z,0.00
2023-02-02T04:34:06.096Z,0.00
2023-02-02T04:35:06.061Z,0.00
2023-02-02T04:36:06.058Z,0.00
2023-02-02T04:37:06.049Z,0.00
2023-02-02T04:38:06.320Z,0.00
2023-02-02T04:39:06.045Z,0.00
2023-02-02T04:40:06.024Z,0.00
2023-02-02T04:41:05.998Z,0.00
2023-02-02T04:42:06.023Z,0.00
2023-02-02T04:43:05.979Z,0.00
2023-02-02T04:44:05.956Z,0.00
2023-02-02T04:45:05.968Z,0.00
2023-02-02T04:46:05.997Z,0.00
2023-02-02T04:47:05.951Z,0.00
2023-02-02T04:48:05.961Z,0.00
2023-02-02T04:49:05.910Z,0.00
2023-02-02T04:50:05.924Z,0.00
2023-02-02T04:51:05.880Z,0.00
2023-02-02T04:52:05.875Z,0.00
2023-02-02T04:53:05.852Z,0.00
2023-02-02T04:54:05.864Z,0.00
2023-02-02T04:55:05.831Z,0.00
2023-02-02T04:56:05.825Z,0.00
2023-02-02T04:57:06.784Z,0.00
2023-02-02T04:58:05.843Z,0.00
2023-02-02T04:59:05.798Z,0.00
2023-02-02T05:00:05.773Z,0.00
2023-02-02T05:01:07.295Z,0.00
2023-02-02T05:02:05.792Z,0.00
2023-02-02T05:03:05.793Z,0.00
2023-02-02T05:04:07.202Z,0.00
2023-02-02T05:05:14.186Z,0.00
2023-02-02T05:06:05.703Z,0.00
2023-02-02T05:07:05.704Z,0.00
2023-02-02T05:08:05.759Z,0.00
2023-02-02T05:09:05.702Z,0.00
2023-02-02T05:10:05.880Z,0.00
2023-02-02T05:11:05.895Z,0.00
2023-02-02T05:12:05.687Z,0.00
2023-02-02T05:13:05.647Z,0.00
2023-02-02T05:14:05.615Z,0.00
2023-02-02T05:15:05.760Z,0.00
2023-02-02T05:16:05.613Z,0.00
2023-02-02T05:17:05.587Z,0.00
2023-02-02T05:18:05.618Z,0.00
2023-02-02T05:19:05.579Z,0.00
2023-02-02T05:20:05.583Z,0.00
2023-02-02T05:21:05.800Z,0.00
2023-02-02T05:22:05.537Z,0.00
2023-02-02T05:23:05.569Z,0.00
2023-02-02T05:24:05.528Z,0.00
2023-02-02T05:25:05.513Z,0.00
2023-02-02T05:26:05.504Z,0.00
2023-02-02T05:27:05.496Z,0.00
2023-02-02T05:28:05.484Z,0.00
2023-02-02T05:29:05.519Z,0.00
2023-02-02T05:30:05.525Z,0.00
2023-02-02T05:31:05.487Z,0.00
2023-02-02T05:32:05.465Z,0.00
2023-02-02T05:33:05.437Z,0.00
2023-02-02T05:34:05.421Z,0.00
2023-02-02T05:35:05.426Z,0.00
2023-02-02T05:36:05.395Z,0.00
2023-02-02T05:37:05.382Z,0.00
2023-02-02T05:38:05.393Z,0.00
2023-02-02T05:39:05.354Z,0.00
2023-02-02T05:40:05.341Z,0.00
2023-02-02T05:41:05.331Z,0.00
2023-02-02T05:42:05.315Z,0.00
2023-02-02T05:43:05.355Z,0.00
2023-02-02T05:44:05.324Z,0.00
2023-02-02T05:45:05.310Z,0.00
2023-02-02T05:46:05.355Z,0.00
2023-02-02T05:47:05.268Z,0.00
2023-02-02T05:48:05.589Z,0.00
2023-02-02T05:49:05.292Z,0.00
2023-02-02T05:50:05.214Z,0.00
2023-02-02T05:51:05.318Z,0.00
2023-02-02T05:52:05.216Z,0.00
2023-02-02T05:53:05.205Z,0.00
2023-02-02T05:54:05.176Z,0.00
2023-02-02T05:55:06.162Z,0.00
2023-02-02T05:56:05.188Z,0.00
2023-02-02T05:57:05.315Z,0.00
2023-02-02T05:58:05.157Z,0.00
2023-02-02T05:59:05.457Z,0.00
2023-02-02T06:00:05.921Z,0.00
2023-02-02T06:01:05.128Z,0.00
2023-02-02T06:02:05.343Z,0.00
2023-02-02T06:03:05.208Z,0.00
2023-02-02T06:04:05.289Z,0.00
2023-02-02T06:05:05.131Z,0.00
2023-02-02T06:06:06.939Z,0.00
2023-02-02T06:07:05.858Z,0.00
2023-02-02T06:08:05.033Z,0.00
2023-02-02T06:09:05.035Z,0.00
2023-02-02T06:10:05.002Z,0.00
2023-02-02T06:11:05.939Z,0.00
2023-02-02T06:12:05.000Z,0.00
2023-02-02T06:13:04.990Z,0.00
2023-02-02T06:14:04.996Z,0.00
2023-02-02T06:15:04.963Z,0.00
2023-02-02T06:16:05.052Z,0.00
2023-02-02T06:17:04.931Z,0.00
2023-02-02T06:18:04.923Z,0.00
2023-02-02T06:19:04.953Z,0.00
2023-02-02T06:20:05.017Z,0.00
2023-02-02T06:21:04.901Z,0.00
2023-02-02T06:22:04.902Z,0.00
2023-02-02T06:23:04.870Z,0.00
2023-02-02T06:24:05.513Z,0.00
2023-02-02T06:25:04.866Z,0.00
2023-02-02T06:26:04.835Z,0.00
2023-02-02T06:27:04.847Z,0.00
2023-02-02T06:28:04.807Z,0.00
2023-02-02T06:29:04.817Z,0.00
2023-02-02T06:30:04.840Z,0.00
2023-02-02T06:31:04.891Z,0.00
2023-02-02T06:32:05.054Z,0.00
2023-02-02T06:33:04.787Z,0.00
2023-02-02T06:34:04.775Z,0.00
2023-02-02T06:35:05.455Z,0.00
2023-02-02T06:36:04.718Z,0.00
2023-02-02T06:37:04.738Z,0.00
2023-02-02T06:38:04.745Z,0.00
2023-02-02T06:39:04.903Z,0.00
2023-02-02T06:40:05.651Z,0.00
2023-02-02T06:41:05.497Z,0.00
2023-02-02T06:42:19.214Z,0.00
2023-02-02T06:43:05.896Z,0.00
2023-02-02T06:44:04.642Z,0.00
2023-02-02T06:45:04.657Z,0.00
2023-02-02T06:46:04.727Z,0.00
2023-02-02T06:47:04.604Z,0.00
2023-02-02T06:48:04.603Z,0.00
2023-02-02T06:49:04.587Z,0.00
2023-02-02T06:50:04.640Z,0.00
2023-02-02T06:51:04.557Z,0.00
2023-02-02T06:52:04.571Z,0.00
2023-02-02T06:53:04.558Z,0.00
2023-02-02T06:54:04.532Z,0.00
2023-02-02T06:55:04.973Z,4.00
2023-02-02T06:56:04.506Z,4.00
2023-02-02T06:57:04.583Z,0.00
2023-02-02T06:58:04.486Z,4.00
2023-02-02T06:59:04.490Z,4.00
2023-02-02T07:00:04.459Z,4.00
2023-02-02T07:01:04.463Z,4.00
2023-02-02T07:02:04.429Z,8.00
2023-02-02T07:03:05.518Z,8.00
2023-02-02T07:04:04.410Z,8.00
2023-02-02T07:05:04.437Z,8.00
2023-02-02T07:06:04.398Z,8.00
2023-02-02T07:07:04.471Z,8.00
2023-02-02T07:08:04.371Z,12.00
2023-02-02T07:09:04.381Z,16.00
2023-02-02T07:10:04.354Z,20.00
2023-02-02T07:11:13.768Z,16.00
2023-02-02T07:12:05.380Z,20.00
2023-02-02T07:13:04.333Z,20.00
2023-02-02T07:14:04.355Z,24.00
2023-02-02T07:15:04.343Z,24.00
2023-02-02T07:16:04.334Z,32.00
2023-02-02T07:17:04.282Z,40.00
2023-02-02T07:18:04.256Z,44.00
2023-02-02T07:19:04.255Z,52.00
2023-02-02T07:20:04.269Z,52.00
2023-02-02T07:21:04.225Z,52.00
2023-02-02T07:22:04.215Z,56.00
2023-02-02T07:23:04.208Z,56.00
2023-02-02T07:24:04.215Z,60.00
2023-02-02T07:25:04.196Z,68.00
2023-02-02T07:26:04.209Z,72.00
2023-02-02T07:27:04.176Z,72.00
2023-02-02T07:28:04.165Z,72.00
2023-02-02T07:29:04.192Z,64.00
2023-02-02T07:30:04.166Z,68.00
2023-02-02T07:31:04.218Z,68.00
2023-02-02T07:32:04.122Z,64.00
2023-02-02T07:33:04.146Z,68.00
2023-02-02T07:34:04.108Z,80.00
2023-02-02T07:35:04.132Z,96.00
2023-02-02T07:36:04.076Z,92.00
2023-02-02T07:37:04.079Z,112.00
2023-02-02T07:38:04.047Z,132.00
2023-02-02T07:39:04.081Z,132.00
2023-02-02T07:40:04.038Z,164.00
2023-02-02T07:41:04.014Z,180.00
2023-02-02T07:42:04.103Z,196.00
2023-02-02T07:43:04.071Z,216.00
2023-02-02T07:44:04.971Z,208.00
2023-02-02T07:45:26.693Z,204.00
2023-02-02T07:46:05.828Z,216.00
2023-02-02T07:47:03.981Z,212.00
2023-02-02T07:48:03.922Z,260.00
2023-02-02T07:49:03.953Z,248.00
2023-02-02T07:50:03.924Z,232.00
2023-02-02T07:51:04.101Z,256.00
2023-02-02T07:52:03.895Z,252.00
2023-02-02T07:53:03.894Z,240.00
2023-02-02T07:54:03.892Z,216.00
2023-02-02T07:55:14.526Z,200.00
2023-02-02T07:56:04.943Z,200.00
2023-02-02T07:57:03.864Z,240.00
2023-02-02T07:58:03.836Z,236.00
2023-02-02T07:59:03.834Z,232.00
2023-02-02T08:00:04.769Z,228.00
2023-02-02T08:01:03.818Z,240.00
2023-02-02T08:02:03.895Z,264.00
2023-02-02T08:03:03.920Z,224.00
2023-02-02T08:04:03.775Z,224.00
2023-02-02T08:05:03.760Z,224.00
2023-02-02T08:06:03.735Z,212.00
2023-02-02T08:07:03.747Z,212.00
2023-02-02T08:08:03.718Z,220.00
2023-02-02T08:09:04.691Z,236.00
2023-02-02T08:10:03.716Z,248.00
2023-02-02T08:11:03.721Z,240.00
2023-02-02T08:12:03.703Z,232.00
2023-02-02T08:13:03.658Z,240.00
2023-02-02T08:14:03.700Z,264.00
2023-02-02T08:15:03.644Z,232.00
2023-02-02T08:16:03.686Z,212.00
2023-02-02T08:17:03.624Z,224.00
2023-02-02T08:18:03.602Z,240.00
2023-02-02T08:19:03.716Z,236.00
2023-02-02T08:20:03.610Z,232.00
2023-02-02T08:21:03.649Z,248.00
2023-02-02T08:22:03.560Z,224.00
2023-02-02T08:23:03.781Z,224.00
2023-02-02T08:24:03.531Z,248.00
2023-02-02T08:25:03.708Z,256.00
2023-02-02T08:26:03.514Z,308.00
2023-02-02T08:27:03.566Z,260.00
2023-02-02T08:28:03.505Z,232.00
2023-02-02T08:29:03.490Z,256.00
2023-02-02T08:30:03.753Z,268.00
2023-02-02T08:31:03.462Z,324.00
2023-02-02T08:32:03.445Z,280.00
2023-02-02T08:33:03.465Z,312.00
2023-02-02T08:34:03.746Z,328.00
2023-02-02T08:35:03.583Z,364.00
2023-02-02T08:36:03.757Z,444.00
2023-02-02T08:37:03.429Z,408.00
2023-02-02T08:38:03.397Z,368.00
2023-02-02T08:39:04.178Z,424.00
2023-02-02T08:40:04.838Z,480.00
2023-02-02T08:41:03.364Z,488.00
2023-02-02T08:42:03.358Z,632.00
2023-02-02T08:43:03.375Z,524.00
2023-02-02T08:44:03.809Z,548.00
2023-02-02T08:46:02.841Z,760.00
2023-02-02T08:46:05.493Z,708.00
2023-02-02T08:47:04.329Z,708.00
2023-02-02T08:48:11.619Z,596.00
2023-02-02T08:49:04.300Z,568.00
2023-02-02T08:50:03.503Z,484.00
2023-02-02T08:51:03.480Z,480.00
2023-02-02T08:52:03.918Z,440.00
2023-02-02T08:53:03.224Z,460.00
2023-02-02T08:54:03.207Z,432.00
2023-02-02T08:55:03.368Z,468.00
2023-02-02T08:56:03.312Z,472.00
2023-02-02T08:57:03.178Z,504.00
2023-02-02T08:58:03.347Z,452.00
2023-02-02T08:59:03.234Z,376.00
2023-02-02T09:00:03.184Z,396.00
2023-02-02T09:01:03.194Z,588.00
2023-02-02T09:02:03.130Z,564.00
2023-02-02T09:03:03.116Z,640.00
2023-02-02T09:04:03.363Z,732.00
2023-02-02T09:05:03.939Z,508.00
2023-02-02T09:06:06.791Z,776.00
2023-02-02T09:07:03.088Z,764.00
2023-02-02T09:08:03.045Z,680.00
2023-02-02T09:09:03.199Z,492.00
2023-02-02T09:10:03.060Z,476.00
2023-02-02T09:11:03.038Z,448.00
2023-02-02T09:12:03.201Z,464.00
2023-02-02T09:13:03.385Z,420.00
2023-02-02T09:14:03.052Z,556.00
2023-02-02T09:15:03.014Z,564.00
2023-02-02T09:16:03.284Z,560.00
2023-02-02T09:17:02.953Z,572.00
2023-02-02T09:18:02.946Z,636.00
2023-02-02T09:19:03.196Z,656.00
2023-02-02T09:20:03.046Z,644.00
2023-02-02T09:21:02.928Z,800.00
2023-02-02T09:22:02.924Z,668.00
2023-02-02T09:23:02.949Z,660.00
2023-02-02T09:24:02.905Z,672.00
2023-02-02T09:25:02.892Z,576.00
2023-02-02T09:26:02.867Z,508.00
2023-02-02T09:27:02.869Z,440.00
2023-02-02T09:28:02.858Z,580.00
2023-02-02T09:29:03.624Z,740.00
2023-02-02T09:30:02.915Z,772.00
2023-02-02T09:31:02.958Z,876.00
2023-02-02T09:32:02.902Z,932.00
2023-02-02T09:33:02.791Z,916.00
2023-02-02T09:34:02.798Z,784.00
2023-02-02T09:35:02.759Z,952.00
2023-02-02T09:36:03.344Z,916.00
2023-02-02T09:37:02.759Z,788.00
2023-02-02T09:38:02.760Z,636.00
2023-02-02T09:39:02.719Z,556.00
2023-02-02T09:40:02.717Z,548.00
2023-02-02T09:41:02.687Z,688.00
2023-02-02T09:42:02.679Z,856.00
2023-02-02T09:43:03.459Z,876.00
2023-02-02T09:44:02.666Z,812.00
2023-02-02T09:45:02.669Z,740.00
2023-02-02T09:46:02.645Z,672.00
2023-02-02T09:47:02.691Z,624.00
2023-02-02T09:48:02.638Z,668.00
2023-02-02T09:49:02.602Z,612.00
2023-02-02T09:50:03.105Z,532.00
2023-02-02T09:51:02.614Z,472.00
2023-02-02T09:52:02.712Z,448.00
2023-02-02T09:53:02.588Z,556.00
2023-02-02T09:54:02.757Z,600.00
2023-02-02T09:55:02.536Z,636.00
2023-02-02T09:56:02.535Z,552.00
2023-02-02T09:57:02.751Z,476.00
2023-02-02T09:58:02.509Z,504.00
2023-02-02T09:59:18.817Z,468.00
2023-02-02T10:00:03.480Z,488.00
2023-02-02T10:01:02.526Z,556.00
2023-02-02T10:02:02.504Z,620.00
2023-02-02T10:03:02.444Z,636.00
2023-02-02T10:04:02.500Z,696.00
2023-02-02T10:05:02.713Z,728.00
2023-02-02T10:06:02.440Z,732.00
2023-02-02T10:07:02.418Z,696.00
2023-02-02T10:08:02.923Z,784.00
2023-02-02T10:09:02.384Z,824.00
2023-02-02T10:10:02.382Z,864.00
2023-02-02T10:11:02.826Z,776.00
2023-02-02T10:12:02.385Z,680.00
2023-02-02T10:13:02.337Z,724.00
2023-02-02T10:14:02.609Z,700.00
2023-02-02T10:15:02.421Z,688.00
2023-02-02T10:16:02.739Z,676.00
2023-02-02T10:17:03.025Z,716.00
2023-02-02T10:18:04.277Z,648.00
2023-02-02T10:19:02.867Z,652.00
2023-02-02T10:20:03.736Z,720.00
2023-02-02T10:21:03.701Z,796.00
2023-02-02T10:22:03.065Z,816.00
2023-02-02T10:23:03.667Z,708.00
2023-02-02T10:24:02.501Z,744.00
2023-02-02T10:25:03.072Z,780.00
2023-02-02T10:26:03.156Z,704.00
2023-02-02T10:27:02.184Z,776.00
2023-02-02T10:28:02.267Z,712.00
2023-02-02T10:29:02.192Z,788.00
2023-02-02T10:30:02.172Z,796.00
2023-02-02T10:31:03.699Z,792.00
2023-02-02T10:32:02.209Z,980.00
2023-02-02T10:33:02.425Z,1112.00
2023-02-02T10:34:02.097Z,1012.00
2023-02-02T10:35:13.091Z,1016.00
2023-02-02T10:36:03.112Z,1056.00
2023-02-02T10:37:04.039Z,1228.00
2023-02-02T10:38:02.152Z,1140.00
2023-02-02T10:39:03.507Z,1220.00
2023-02-02T10:40:02.116Z,1148.00
2023-02-02T10:41:03.496Z,1008.00
2023-02-02T10:42:03.458Z,1044.00
2023-02-02T10:43:02.997Z,1244.00
2023-02-02T10:44:02.393Z,1436.00
2023-02-02T10:45:02.324Z,1544.00
2023-02-02T10:46:02.206Z,1864.00
2023-02-02T10:47:03.426Z,1988.00
2023-02-02T10:48:01.956Z,1652.00
2023-02-02T10:49:02.409Z,1628.00
2023-02-02T10:50:01.991Z,1624.00
2023-02-02T10:51:02.733Z,1932.00
2023-02-02T10:52:01.956Z,1692.00
2023-02-02T10:53:02.851Z,1488.00
2023-02-02T10:54:01.901Z,1440.00
2023-02-02T10:55:04.142Z,1180.00
2023-02-02T10:56:01.966Z,1100.00
2023-02-02T10:57:01.897Z,1068.00
2023-02-02T10:58:02.114Z,1008.00
2023-02-02T10:59:01.863Z,972.00
2023-02-02T11:00:01.836Z,804.00
2023-02-02T11:01:01.829Z,900.00
2023-02-02T11:02:11.667Z,1028.00
2023-02-02T11:03:02.823Z,1208.00
2023-02-02T11:04:02.324Z,1752.00
2023-02-02T11:05:01.993Z,1512.00
2023-02-02T11:06:01.760Z,1352.00
2023-02-02T11:07:01.922Z,1192.00
2023-02-02T11:08:01.726Z,976.00
2023-02-02T11:09:01.760Z,1084.00
2023-02-02T11:10:01.742Z,1056.00
2023-02-02T11:11:01.729Z,1012.00
2023-02-02T11:12:01.693Z,1068.00
2023-02-02T11:13:02.212Z,932.00
2023-02-02T11:14:02.607Z,1140.00
2023-02-02T11:15:01.726Z,1092.00
2023-02-02T11:16:05.534Z,1176.00
2023-02-02T11:17:01.620Z,1196.00
2023-02-02T11:18:01.657Z,1104.00
2023-02-02T11:19:01.809Z,1052.00
2023-02-02T11:20:01.610Z,996.00
2023-02-02T11:21:01.664Z,1084.00
2023-02-02T11:22:01.596Z,1288.00
2023-02-02T11:23:01.616Z,1128.00
2023-02-02T11:24:02.356Z,1124.00
2023-02-02T11:25:01.567Z,1264.00
2023-02-02T11:26:01.599Z,1348.00
2023-02-02T11:27:01.590Z,1124.00
2023-02-02T11:28:02.942Z,988.00
2023-02-02T11:29:01.644Z,944.00
2023-02-02T11:30:01.662Z,916.00
2023-02-02T11:31:01.575Z,924.00
2023-02-02T11:32:01.529Z,856.00
2023-02-02T11:33:01.445Z,832.00
2023-02-02T11:34:01.550Z,908.00
2023-02-02T11:35:01.415Z,968.00
2023-02-02T11:36:02.379Z,1008.00
2023-02-02T11:37:01.445Z,1084.00
2023-02-02T11:38:02.344Z,1132.00
2023-02-02T11:39:01.387Z,1068.00
2023-02-02T11:40:01.391Z,1068.00
2023-02-02T11:41:01.422Z,1052.00
2023-02-02T11:42:01.349Z,1008.00
2023-02-02T11:43:01.367Z,1080.00
2023-02-02T11:44:01.437Z,1008.00
2023-02-02T11:45:01.311Z,976.00
2023-02-02T11:46:03.054Z,1092.00
2023-02-02T11:47:01.360Z,1088.00
2023-02-02T11:48:01.304Z,1188.00
2023-02-02T11:49:01.306Z,1340.00
2023-02-02T11:50:01.256Z,1040.00
2023-02-02T11:51:01.399Z,1120.00
2023-02-02T11:52:01.233Z,1068.00
2023-02-02T11:53:01.334Z,1048.00
2023-02-02T11:54:01.228Z,992.00
2023-02-02T11:55:01.391Z,1000.00
2023-02-02T11:56:01.203Z,1004.00
2023-02-02T11:57:01.176Z,988.00
2023-02-02T11:58:01.179Z,1076.00
2023-02-02T11:59:01.170Z,892.00
2023-02-02T12:00:01.176Z,1044.00
2023-02-02T12:01:01.149Z,1216.00
2023-02-02T12:02:01.165Z,920.00
2023-02-02T12:03:01.119Z,928.00
2023-02-02T12:04:01.207Z,972.00
2023-02-02T12:05:01.998Z,944.00
2023-02-02T12:06:01.077Z,948.00
2023-02-02T12:07:01.079Z,1020.00
2023-02-02T12:08:01.095Z,1116.00
2023-02-02T12:09:01.089Z,1056.00
2023-02-02T12:10:01.045Z,1028.00
2023-02-02T12:11:01.036Z,1140.00
2023-02-02T12:12:01.043Z,1148.00
2023-02-02T12:13:01.002Z,1252.00
2023-02-02T12:14:00.997Z,1324.00
2023-02-02T12:15:00.972Z,1256.00
2023-02-02T12:16:00.994Z,1120.00
2023-02-02T12:17:00.982Z,1044.00
2023-02-02T12:18:01.011Z,1040.00
2023-02-02T12:19:00.934Z,1172.00
2023-02-02T12:20:00.924Z,1132.00
2023-02-02T12:21:00.912Z,1116.00
2023-02-02T12:22:00.912Z,980.00
2023-02-02T12:23:00.894Z,924.00
2023-02-02T12:24:00.904Z,936.00
2023-02-02T12:25:00.873Z,1164.00
2023-02-02T12:26:00.904Z,1092.00
2023-02-02T12:27:00.912Z,1012.00
2023-02-02T12:28:00.843Z,796.00
2023-02-02T12:29:00.859Z,776.00
2023-02-02T12:30:00.819Z,696.00
2023-02-02T12:31:00.831Z,668.00
2023-02-02T12:32:00.949Z,724.00
2023-02-02T12:33:00.836Z,656.00
2023-02-02T12:34:02.207Z,624.00
2023-02-02T12:35:00.770Z,572.00
2023-02-02T12:36:00.765Z,588.00
2023-02-02T12:37:00.737Z,564.00
2023-02-02T12:38:01.107Z,652.00
2023-02-02T12:39:00.741Z,644.00
2023-02-02T12:40:01.146Z,668.00
2023-02-02T12:41:01.223Z,668.00
2023-02-02T12:42:00.675Z,656.00
2023-02-02T12:43:00.678Z,624.00
2023-02-02T12:44:01.130Z,660.00
2023-02-02T12:45:00.681Z,836.00
2023-02-02T12:46:00.755Z,840.00
2023-02-02T12:47:00.634Z,988.00
2023-02-02T12:48:00.996Z,992.00
2023-02-02T12:49:01.164Z,1028.00
2023-02-02T12:50:00.732Z,920.00
2023-02-02T12:51:00.709Z,860.00
2023-02-02T12:52:00.640Z,832.00
2023-02-02T12:53:00.548Z,788.00